createdAt,value
2022-10-16T00:01:36.069Z,83.95
2022-10-16T00:04:08.205Z,84.21
2022-10-16T00:06:40.340Z,84.33
2022-10-16T00:09:12.236Z,83.99
2022-10-16T00:11:44.621Z,84.07
2022-10-16T00:14:18.144Z,84.55
2022-10-16T00:16:50.316Z,84.95
2022-10-16T00:19:22.375Z,84.62
2022-10-16T00:21:54.270Z,84.82
2022-10-16T00:24:26.093Z,84.62
2022-10-16T00:26:58.107Z,84.57
2022-10-16T00:29:30.103Z,85.28
2022-10-16T00:32:02.993Z,85.88
2022-10-16T00:34:35.402Z,85.77
2022-10-16T00:37:07.789Z,85.48
2022-10-16T00:39:39.929Z,85.21
2022-10-16T00:42:16.806Z,85.25
2022-10-16T00:44:53.582Z,85.30
2022-10-16T00:47:30.029Z,85.08
2022-10-16T00:50:08.459Z,84.82
2022-10-16T00:52:45.288Z,85.53
2022-10-16T00:55:17.746Z,85.43
2022-10-16T00:58:00.398Z,85.01
2022-10-16T01:00:36.079Z,84.63
2022-10-16T01:03:28.907Z,85.56
2022-10-16T01:06:22.132Z,85.81
2022-10-16T01:09:04.362Z,85.78
2022-10-16T01:11:43.734Z,85.24
2022-10-16T01:14:24.243Z,85.35
2022-10-16T01:17:04.057Z,85.55
2022-10-16T01:20:02.871Z,85.13
2022-10-16T01:22:44.219Z,85.17
2022-10-16T01:25:25.153Z,85.06
2022-10-16T01:27:58.062Z,84.85
2022-10-16T01:30:34.914Z,84.79
2022-10-16T01:33:16.322Z,84.67
2022-10-16T01:35:53.775Z,84.87
2022-10-16T01:38:32.689Z,84.52
2022-10-16T01:41:13.478Z,84.48
2022-10-16T01:43:48.819Z,84.80
2022-10-16T01:46:23.173Z,85.14
2022-10-16T01:48:56.106Z,85.82
2022-10-16T01:51:29.952Z,86.05
2022-10-16T01:54:03.807Z,85.72
2022-10-16T01:56:36.911Z,85.41
2022-10-16T01:59:14.052Z,84.66
2022-10-16T02:01:51.234Z,84.51
2022-10-16T02:04:30.245Z,84.35
2022-10-16T02:07:02.927Z,84.35
2022-10-16T02:09:37.309Z,84.14
2022-10-16T02:12:17.444Z,84.37
2022-10-16T02:14:49.399Z,84.32
2022-10-16T02:17:22.412Z,84.46
2022-10-16T02:19:56.919Z,85.00
2022-10-16T02:22:33.173Z,84.80
2022-10-16T02:25:08.331Z,84.54
2022-10-16T02:27:48.326Z,85.35
2022-10-16T02:30:25.525Z,85.16
2022-10-16T02:32:59.056Z,84.91
2022-10-16T02:35:32.558Z,85.58
2022-10-16T02:38:05.379Z,85.49
2022-10-16T02:40:37.853Z,85.89
2022-10-16T02:43:11.611Z,86.21
2022-10-16T02:45:43.897Z,86.27
2022-10-16T02:48:16.344Z,86.09
2022-10-16T02:50:48.396Z,85.96
2022-10-16T02:53:20.395Z,85.41
2022-10-16T02:55:52.252Z,86.01
2022-10-16T02:58:24.180Z,85.72
2022-10-16T03:00:56.973Z,85.61
2022-10-16T03:03:29.092Z,85.74
2022-10-16T03:06:01.024Z,85.53
2022-10-16T03:08:33.171Z,85.27
2022-10-16T03:11:05.465Z,85.44
2022-10-16T03:13:37.330Z,85.21
2022-10-16T03:16:09.377Z,85.24
2022-10-16T03:18:41.668Z,84.90
2022-10-16T03:21:13.800Z,84.91
2022-10-16T03:23:45.878Z,85.25
2022-10-16T03:26:17.872Z,85.55
2022-10-16T03:28:49.926Z,86.19
2022-10-16T03:31:22.154Z,86.48
2022-10-16T03:33:54.108Z,86.23
2022-10-16T03:36:26.130Z,86.13
2022-10-16T03:38:58.178Z,86.49
2022-10-16T03:41:30.196Z,86.43
2022-10-16T03:44:02.072Z,86.20
2022-10-16T03:46:34.805Z,86.85
2022-10-16T03:49:09.637Z,86.44
2022-10-16T03:51:42.265Z,86.77
2022-10-16T03:54:14.749Z,87.29
2022-10-16T03:56:46.674Z,87.23
2022-10-16T03:59:19.113Z,87.69
2022-10-16T04:01:51.370Z,87.86
2022-10-16T04:04:23.725Z,87.70
2022-10-16T04:06:55.729Z,87.48
2022-10-16T04:09:27.780Z,87.67
2022-10-16T04:11:59.553Z,87.40
2022-10-16T04:14:31.722Z,87.84
2022-10-16T04:17:03.630Z,88.34
2022-10-16T04:19:35.765Z,88.06
2022-10-16T04:22:07.916Z,87.57
2022-10-16T04:24:39.980Z,87.96
2022-10-16T04:27:14.701Z,87.97
2022-10-16T04:29:46.982Z,88.56
2022-10-16T04:32:18.926Z,88.09
2022-10-16T04:34:50.976Z,88.45
2022-10-16T04:37:27.840Z,89.06
2022-10-16T04:39:59.971Z,88.71
2022-10-16T04:42:31.882Z,89.01
2022-10-16T04:45:03.797Z,88.91
2022-10-16T04:47:36.493Z,89.66
2022-10-16T04:50:09.846Z,89.79
2022-10-16T04:52:42.460Z,90.14
2022-10-16T04:55:14.469Z,90.80
2022-10-16T04:57:46.571Z,91.41
2022-10-16T05:00:19.230Z,91.23
2022-10-16T05:02:51.563Z,90.56
2022-10-16T05:05:24.145Z,89.69
2022-10-16T05:07:56.427Z,90.01
2022-10-16T05:10:29.174Z,88.83
2022-10-16T05:13:01.331Z,88.65
2022-10-16T05:15:33.482Z,88.79
2022-10-16T05:18:05.920Z,89.03
2022-10-16T05:20:38.873Z,89.20
2022-10-16T05:25:59.363Z,89.15
2022-10-16T05:28:32.264Z,89.07
2022-10-16T05:31:08.209Z,88.84
2022-10-16T05:33:40.291Z,89.16
2022-10-16T05:36:14.009Z,89.14
2022-10-16T05:38:46.184Z,89.69
2022-10-16T05:41:22.403Z,90.24
2022-10-16T05:43:54.522Z,89.80
2022-10-16T05:46:27.286Z,89.94
2022-10-16T05:48:59.322Z,89.55
2022-10-16T05:51:32.007Z,90.57
2022-10-16T05:54:04.346Z,90.43
2022-10-16T05:56:36.301Z,90.89
2022-10-16T05:59:08.323Z,91.15
2022-10-16T06:01:42.156Z,90.81
2022-10-16T06:04:14.033Z,90.12
2022-10-16T06:06:46.276Z,90.18
2022-10-16T06:09:18.441Z,90.78
2022-10-16T06:11:51.005Z,90.71
2022-10-16T06:14:22.934Z,90.52
2022-10-16T06:16:54.839Z,90.08
2022-10-16T06:19:26.837Z,89.61
2022-10-16T06:21:59.401Z,89.27
2022-10-16T06:24:31.519Z,89.76
2022-10-16T06:27:04.937Z,90.01
2022-10-16T06:29:36.807Z,90.40
2022-10-16T06:32:08.917Z,90.40
2022-10-16T06:34:44.108Z,90.25
2022-10-16T06:37:16.417Z,90.30
2022-10-16T06:39:48.336Z,91.05
2022-10-16T06:42:20.324Z,90.41
2022-10-16T06:44:52.162Z,90.65
2022-10-16T06:47:24.281Z,91.76
2022-10-16T06:49:56.277Z,92.55
2022-10-16T06:52:29.743Z,92.54
2022-10-16T06:55:01.916Z,92.96
2022-10-16T06:57:33.907Z,93.01
2022-10-16T07:00:07.571Z,93.32
2022-10-16T07:02:39.441Z,92.50
2022-10-16T07:05:11.897Z,91.51
2022-10-16T07:07:43.738Z,91.30
2022-10-16T07:10:15.609Z,91.67
2022-10-16T07:12:48.020Z,91.69
2022-10-16T07:15:19.995Z,90.74
2022-10-16T07:17:51.874Z,90.54
2022-10-16T07:20:24.212Z,90.93
2022-10-16T07:22:56.906Z,90.88
2022-10-16T07:25:29.056Z,90.70
2022-10-16T07:28:01.042Z,89.97
2022-10-16T07:30:32.951Z,89.53
2022-10-16T07:33:04.904Z,89.47
2022-10-16T07:35:36.832Z,89.46
2022-10-16T07:38:08.723Z,89.46
2022-10-16T07:40:40.651Z,89.41
2022-10-16T07:43:12.888Z,90.02
2022-10-16T07:48:32.592Z,89.44
2022-10-16T07:51:06.233Z,89.88
2022-10-16T07:53:38.364Z,89.39
2022-10-16T07:56:11.327Z,89.45
2022-10-16T07:58:43.249Z,88.39
2022-10-16T08:01:17.050Z,88.73
2022-10-16T08:03:51.004Z,88.86
2022-10-16T08:06:27.660Z,89.35
2022-10-16T08:09:01.023Z,88.97
2022-10-16T08:11:33.128Z,89.25
2022-10-16T08:14:06.587Z,89.31
2022-10-16T08:16:38.508Z,89.06
2022-10-16T08:19:10.534Z,88.83
2022-10-16T08:21:42.868Z,88.35
2022-10-16T08:24:15.130Z,88.80
2022-10-16T08:26:47.554Z,88.60
2022-10-16T08:29:19.590Z,88.43
2022-10-16T08:31:51.513Z,87.98
2022-10-16T08:34:23.461Z,87.95
2022-10-16T08:36:56.549Z,87.89
2022-10-16T08:39:28.462Z,87.65
2022-10-16T08:42:18.986Z,88.39
2022-10-16T08:45:08.799Z,88.41
2022-10-16T08:47:50.907Z,88.32
2022-10-16T08:50:28.082Z,88.08
2022-10-16T08:53:01.155Z,87.58
2022-10-16T08:55:39.435Z,87.10
2022-10-16T08:58:17.756Z,86.77
2022-10-16T09:00:52.862Z,86.72
2022-10-16T09:03:35.678Z,86.34
2022-10-16T09:06:18.581Z,86.28
2022-10-16T09:09:05.747Z,85.94
2022-10-16T09:11:47.738Z,85.54
2022-10-16T09:14:42.535Z,85.82
2022-10-16T09:17:29.639Z,86.07
2022-10-16T09:20:15.905Z,84.74
2022-10-16T09:22:48.151Z,84.20
2022-10-16T09:25:23.184Z,83.75
2022-10-16T09:27:57.796Z,82.99
2022-10-16T09:30:31.506Z,82.67
2022-10-16T09:33:03.909Z,81.66
2022-10-16T09:35:40.852Z,81.20
2022-10-16T09:38:23.271Z,80.94
2022-10-16T09:41:02.391Z,80.32
2022-10-16T09:43:42.270Z,79.88
2022-10-16T09:46:29.239Z,79.19
2022-10-16T09:49:03.237Z,78.85
2022-10-16T09:51:37.528Z,78.04
2022-10-16T09:54:19.789Z,78.76
2022-10-16T09:56:53.140Z,78.53
2022-10-16T09:59:27.985Z,78.64
2022-10-16T10:02:04.531Z,78.75
2022-10-16T10:04:46.734Z,78.61
2022-10-16T10:07:27.543Z,79.07
2022-10-16T10:10:24.724Z,78.64
2022-10-16T10:12:58.182Z,79.10
2022-10-16T10:15:44.132Z,79.57
2022-10-16T10:18:25.178Z,79.73
2022-10-16T10:21:06.962Z,79.56
2022-10-16T10:23:39.227Z,79.67
2022-10-16T10:26:18.649Z,79.91
2022-10-16T10:29:03.788Z,79.24
2022-10-16T10:31:44.652Z,79.10
2022-10-16T10:34:43.815Z,78.22
2022-10-16T10:37:32.116Z,77.73
2022-10-16T10:40:15.959Z,77.26
2022-10-16T10:42:55.244Z,76.47
2022-10-16T10:45:45.204Z,75.97
2022-10-16T10:48:45.025Z,76.20
2022-10-16T10:51:26.867Z,75.52
2022-10-16T10:54:07.457Z,75.50
2022-10-16T10:56:53.135Z,75.31
2022-10-16T11:00:05.978Z,75.32
2022-10-16T11:02:44.051Z,74.91
2022-10-16T11:05:29.694Z,75.41
2022-10-16T11:08:06.421Z,75.16
2022-10-16T11:10:50.442Z,75.59
2022-10-16T11:13:33.561Z,73.53
2022-10-16T11:16:15.252Z,72.15
2022-10-16T11:18:57.850Z,71.71
2022-10-16T11:21:31.734Z,71.68
2022-10-16T11:24:08.868Z,71.70
2022-10-16T11:26:45.438Z,72.06
2022-10-16T11:29:21.849Z,72.40
2022-10-16T11:31:59.249Z,72.87
2022-10-16T11:34:37.776Z,72.83
2022-10-16T11:37:14.782Z,72.10
2022-10-16T11:39:48.371Z,72.27
2022-10-16T11:42:29.207Z,72.88
2022-10-16T11:45:10.111Z,72.96
2022-10-16T11:48:02.355Z,73.02
2022-10-16T11:50:39.697Z,72.30
2022-10-16T11:53:20.878Z,72.77
2022-10-16T11:55:52.947Z,72.29
2022-10-16T11:58:31.906Z,72.21
2022-10-16T12:01:15.709Z,70.91
2022-10-16T12:03:57.959Z,70.63
2022-10-16T12:06:36.430Z,70.59
2022-10-16T12:09:15.547Z,70.62
2022-10-16T12:11:47.820Z,70.28
2022-10-16T12:17:38.570Z,69.66
2022-10-16T12:20:32.113Z,68.32
2022-10-16T12:23:07.253Z,66.55
2022-10-16T12:25:47.472Z,65.90
2022-10-16T12:28:24.966Z,65.74
2022-10-16T12:31:02.222Z,66.16
2022-10-16T12:33:36.440Z,67.08
2022-10-16T12:36:16.235Z,67.82
2022-10-16T12:38:52.727Z,68.01
2022-10-16T12:41:31.352Z,68.04
2022-10-16T12:44:03.876Z,68.20
2022-10-16T12:46:42.342Z,66.92
2022-10-16T12:49:31.998Z,66.56
2022-10-16T12:52:04.440Z,66.68
2022-10-16T12:54:41.156Z,66.85
2022-10-16T12:57:38.979Z,66.68
2022-10-16T13:00:23.805Z,66.67
2022-10-16T13:03:35.135Z,66.61
2022-10-16T13:06:17.611Z,66.49
2022-10-16T13:09:04.728Z,66.67
2022-10-16T13:11:51.307Z,66.69
2022-10-16T13:14:45.661Z,66.93
2022-10-16T13:17:25.248Z,67.08
2022-10-16T13:20:08.767Z,66.88
2022-10-16T13:22:53.799Z,67.32
2022-10-16T13:25:39.358Z,67.67
2022-10-16T13:28:12.735Z,67.60
2022-10-16T13:30:53.114Z,67.81
2022-10-16T13:33:32.738Z,68.06
2022-10-16T13:36:05.432Z,68.23
2022-10-16T13:38:38.436Z,68.25
2022-10-16T13:41:18.751Z,67.93
2022-10-16T13:43:52.790Z,68.03
2022-10-16T13:46:26.137Z,67.69
2022-10-16T13:49:02.399Z,68.22
2022-10-16T13:51:35.471Z,68.58
2022-10-16T13:54:07.470Z,68.44
2022-10-16T13:56:40.725Z,69.06
2022-10-16T13:59:29.601Z,69.29
2022-10-16T14:02:07.804Z,69.42
2022-10-16T14:04:42.740Z,69.29
2022-10-16T14:07:21.579Z,69.53
2022-10-16T14:09:54.880Z,69.58
2022-10-16T14:12:28.447Z,69.69
2022-10-16T14:15:02.358Z,69.22
2022-10-16T14:17:37.135Z,69.33
2022-10-16T14:20:16.763Z,69.23
2022-10-16T14:22:49.072Z,69.27
2022-10-16T14:25:28.617Z,69.52
2022-10-16T14:28:17.654Z,69.89
2022-10-16T14:30:58.024Z,69.79
2022-10-16T14:33:35.943Z,69.70
2022-10-16T14:36:13.787Z,69.31
2022-10-16T14:38:56.585Z,68.71
2022-10-16T14:41:29.064Z,68.23
2022-10-16T14:44:05.864Z,68.31
2022-10-16T14:46:42.451Z,68.09
2022-10-16T14:49:21.354Z,67.77
2022-10-16T14:51:54.045Z,67.87
2022-10-16T14:54:25.976Z,68.04
2022-10-16T14:57:00.542Z,67.90
2022-10-16T14:59:35.991Z,68.44
2022-10-16T15:02:23.228Z,68.80
2022-10-16T15:04:55.219Z,68.93
2022-10-16T15:07:28.153Z,69.43
2022-10-16T15:10:00.453Z,70.24
2022-10-16T15:12:32.997Z,70.08
2022-10-16T15:15:17.767Z,70.26
2022-10-16T15:17:53.580Z,70.24
2022-10-16T15:20:26.127Z,70.15
2022-10-16T15:22:58.196Z,70.38
2022-10-16T15:25:38.038Z,71.05
2022-10-16T15:28:12.675Z,70.94
2022-10-16T15:30:46.589Z,70.98
2022-10-16T15:33:20.535Z,70.97
2022-10-16T15:35:53.800Z,71.03
2022-10-16T15:38:29.898Z,70.97
2022-10-16T15:41:01.887Z,71.14
2022-10-16T15:43:33.855Z,71.00
2022-10-16T15:46:08.070Z,71.18
2022-10-16T15:48:41.035Z,71.32
2022-10-16T15:51:13.366Z,71.65
2022-10-16T15:53:47.369Z,71.67
2022-10-16T15:56:19.820Z,71.69
2022-10-16T15:58:52.009Z,72.01
2022-10-16T16:01:24.034Z,71.90
2022-10-16T16:03:57.812Z,72.05
2022-10-16T16:06:30.584Z,72.36
2022-10-16T16:11:40.218Z,72.29
2022-10-16T16:14:14.834Z,72.35
2022-10-16T16:16:47.175Z,72.36
2022-10-16T16:19:22.037Z,72.26
2022-10-16T16:21:54.465Z,72.47
2022-10-16T16:24:26.764Z,72.58
2022-10-16T16:26:58.837Z,72.86
2022-10-16T16:29:30.801Z,72.82
2022-10-16T16:32:03.101Z,72.53
2022-10-16T16:34:35.552Z,72.48
2022-10-16T16:37:07.522Z,72.13
2022-10-16T16:39:39.530Z,72.46
2022-10-16T16:42:11.611Z,72.67
2022-10-16T16:44:43.724Z,72.54
2022-10-16T16:47:15.879Z,72.73
2022-10-16T16:49:48.450Z,72.48
2022-10-16T16:52:20.580Z,72.54
2022-10-16T16:54:53.274Z,72.51
2022-10-16T16:57:26.610Z,72.73
2022-10-16T16:59:58.791Z,72.70
2022-10-16T17:02:30.860Z,72.80
2022-10-16T17:05:02.887Z,72.82
2022-10-16T17:07:36.600Z,72.73
2022-10-16T17:10:09.902Z,73.34
2022-10-16T17:12:42.103Z,73.38
2022-10-16T17:15:15.123Z,73.19
2022-10-16T17:17:47.201Z,73.08
2022-10-16T17:20:19.447Z,73.22
2022-10-16T17:22:52.017Z,73.46
2022-10-16T17:25:25.209Z,73.77
2022-10-16T17:27:57.509Z,73.31
2022-10-16T17:30:29.967Z,73.51
2022-10-16T17:33:02.783Z,73.50
2022-10-16T17:35:39.771Z,73.90
2022-10-16T17:38:12.806Z,74.16
2022-10-16T17:40:44.765Z,74.08
2022-10-16T17:43:16.821Z,73.95
2022-10-16T17:45:48.909Z,73.62
2022-10-16T17:48:20.990Z,73.39
2022-10-16T17:50:53.195Z,73.38
2022-10-16T17:53:25.111Z,73.43
2022-10-16T17:55:59.416Z,73.88
2022-10-16T17:58:31.415Z,74.35
2022-10-16T18:01:12.852Z,74.67
2022-10-16T18:03:45.028Z,73.61
2022-10-16T18:06:22.574Z,73.11
2022-10-16T18:08:56.448Z,73.12
2022-10-16T18:11:29.299Z,73.01
2022-10-16T18:14:02.282Z,73.46
2022-10-16T18:16:36.752Z,73.87
2022-10-16T18:19:10.349Z,73.47
2022-10-16T18:21:42.663Z,73.22
2022-10-16T18:24:14.744Z,73.44
2022-10-16T18:26:47.957Z,73.18
2022-10-16T18:29:20.337Z,72.94
2022-10-16T18:31:52.997Z,72.20
2022-10-16T18:34:26.993Z,72.45
2022-10-16T18:36:58.890Z,72.91
2022-10-16T18:39:31.130Z,74.33
2022-10-16T18:42:03.018Z,74.29
2022-10-16T18:44:35.428Z,73.69
2022-10-16T18:47:08.048Z,73.11
2022-10-16T18:49:40.654Z,73.09
2022-10-16T18:52:13.021Z,72.93
2022-10-16T18:54:45.065Z,73.40
2022-10-16T18:57:17.186Z,74.18
2022-10-16T18:59:49.993Z,74.80
2022-10-16T19:02:21.935Z,74.07
2022-10-16T19:04:53.982Z,72.62
2022-10-16T19:07:26.335Z,72.16
2022-10-16T19:09:58.842Z,72.93
2022-10-16T19:12:32.672Z,72.96
2022-10-16T19:15:05.063Z,72.95
2022-10-16T19:17:38.210Z,72.41
2022-10-16T19:20:11.782Z,72.54
2022-10-16T19:22:56.627Z,72.44
2022-10-16T19:25:28.790Z,73.61
2022-10-16T19:28:01.871Z,73.78
2022-10-16T19:30:38.919Z,72.79
2022-10-16T19:33:11.965Z,73.20
2022-10-16T19:35:44.135Z,72.68
2022-10-16T19:38:16.019Z,72.72
2022-10-16T19:40:48.231Z,72.69
2022-10-16T19:43:20.172Z,73.41
2022-10-16T19:45:52.184Z,73.70
2022-10-16T19:51:02.714Z,74.64
2022-10-16T19:53:35.347Z,74.51
2022-10-16T19:56:15.302Z,74.86
2022-10-16T19:58:48.258Z,72.53
2022-10-16T20:01:20.884Z,73.21
2022-10-16T20:03:53.302Z,73.44
2022-10-16T20:06:26.110Z,73.34
2022-10-16T20:08:58.711Z,73.07
2022-10-16T20:11:33.804Z,72.87
2022-10-16T20:14:04.918Z,73.41
2022-10-16T20:16:37.237Z,73.22
2022-10-16T20:19:09.131Z,73.34
2022-10-16T20:21:41.358Z,74.06
2022-10-16T20:24:13.920Z,74.85
2022-10-16T20:26:46.091Z,74.43
2022-10-16T20:29:18.915Z,74.15
2022-10-16T20:31:50.885Z,75.38
2022-10-16T20:34:23.167Z,76.31
2022-10-16T20:36:55.119Z,76.27
2022-10-16T20:39:27.069Z,75.79
2022-10-16T20:41:59.004Z,75.50
2022-10-16T20:44:30.978Z,75.21
2022-10-16T20:47:03.180Z,75.08
2022-10-16T20:49:40.674Z,75.46
2022-10-16T20:52:13.066Z,75.61
2022-10-16T20:54:47.189Z,75.78
2022-10-16T20:57:19.183Z,76.21
2022-10-16T20:59:55.600Z,74.59
2022-10-16T21:02:27.928Z,73.76
2022-10-16T21:05:00.091Z,73.45
2022-10-16T21:07:32.330Z,73.58
2022-10-16T21:10:05.735Z,75.43
2022-10-16T21:12:37.697Z,76.54
2022-10-16T21:15:15.459Z,76.78
2022-10-16T21:17:47.880Z,76.64
2022-10-16T21:20:20.281Z,74.96
2022-10-16T21:22:52.422Z,74.91
2022-10-16T21:25:24.581Z,76.19
2022-10-16T21:27:56.738Z,76.43
2022-10-16T21:30:28.895Z,76.87
2022-10-16T21:33:00.841Z,77.22
2022-10-16T21:35:33.277Z,77.11
2022-10-16T21:38:06.715Z,76.63
2022-10-16T21:40:38.785Z,76.33
2022-10-16T21:43:11.107Z,76.71
2022-10-16T21:45:43.054Z,77.07
2022-10-16T21:48:15.137Z,78.74
2022-10-16T21:50:51.762Z,79.83
2022-10-16T21:53:23.918Z,80.07
2022-10-16T21:55:56.064Z,79.35
2022-10-16T21:58:28.516Z,79.09
2022-10-16T22:01:00.404Z,78.08
2022-10-16T22:03:32.318Z,77.42
2022-10-16T22:06:06.843Z,77.63
2022-10-16T22:08:39.789Z,78.40
2022-10-16T22:11:14.014Z,79.04
2022-10-16T22:13:46.641Z,79.52
2022-10-16T22:16:22.671Z,78.21
2022-10-16T22:18:56.153Z,77.92
2022-10-16T22:21:28.440Z,77.48
2022-10-16T22:24:01.348Z,77.91
2022-10-16T22:26:33.666Z,77.63
2022-10-16T22:29:06.016Z,78.21
2022-10-16T22:31:37.953Z,77.67
2022-10-16T22:34:12.551Z,77.72
2022-10-16T22:36:46.422Z,78.22
2022-10-16T22:39:19.640Z,78.77
2022-10-16T22:41:51.545Z,78.92
2022-10-16T22:44:23.430Z,78.92
2022-10-16T22:46:55.529Z,78.77
2022-10-16T22:49:31.716Z,79.17
2022-10-16T22:52:05.754Z,79.28
2022-10-16T22:54:38.176Z,79.58
2022-10-16T22:57:10.267Z,79.61
2022-10-16T22:59:46.229Z,79.48
2022-10-16T23:02:18.220Z,79.56
2022-10-16T23:04:50.155Z,79.77
2022-10-16T23:07:22.010Z,79.93
2022-10-16T23:09:54.798Z,79.70
2022-10-16T23:12:28.100Z,80.05
2022-10-16T23:15:00.435Z,80.23
2022-10-16T23:17:32.676Z,79.92
2022-10-16T23:20:05.165Z,79.99
2022-10-16T23:22:37.047Z,80.05
2022-10-16T23:25:09.972Z,79.96
2022-10-16T23:27:44.139Z,80.02
2022-10-16T23:30:16.221Z,79.90
2022-10-16T23:32:48.212Z,79.89
2022-10-16T23:35:20.616Z,79.71
2022-10-16T23:37:53.058Z,79.85
2022-10-16T23:40:25.271Z,80.20
2022-10-16T23:42:57.453Z,80.03
2022-10-16T23:45:29.788Z,79.82
2022-10-16T23:48:01.653Z,80.15
2022-10-16T23:50:33.782Z,80.44
2022-10-16T23:53:09.396Z,80.55
2022-10-16T23:55:44.418Z,80.25
2022-10-16T23:58:16.793Z,80.51
